createdAt,value
2022-11-24T00:01:31.483Z,-64
2022-11-24T00:04:05.996Z,-65
2022-11-24T00:06:36.290Z,-64
2022-11-24T00:09:05.553Z,-64
2022-11-24T00:11:36.331Z,-65
2022-11-24T00:14:06.506Z,-65
2022-11-24T00:16:37.777Z,-65
2022-11-24T00:19:09.657Z,-64
2022-11-24T00:21:38.723Z,-65
2022-11-24T00:24:06.794Z,-65
2022-11-24T00:26:37.581Z,-64
2022-11-24T00:29:07.927Z,-64
2022-11-24T00:31:41.816Z,-65
2022-11-24T00:34:14.521Z,-65
2022-11-24T00:36:42.767Z,-65
2022-11-24T00:39:15.811Z,-65
2022-11-24T00:41:43.776Z,-64
2022-11-24T00:44:11.120Z,-65
2022-11-24T00:46:38.620Z,-65
2022-11-24T00:49:06.223Z,-64
2022-11-24T00:51:33.718Z,-64
2022-11-24T00:54:02.321Z,-64
2022-11-24T00:56:30.274Z,-65
2022-11-24T00:58:58.323Z,-65
2022-11-24T01:01:30.997Z,-65
2022-11-24T01:04:03.664Z,-65
2022-11-24T01:06:32.798Z,-65
2022-11-24T01:09:00.465Z,-65
2022-11-24T01:11:52.426Z,-65
2022-11-24T01:14:23.429Z,-66
2022-11-24T01:16:50.762Z,-65
2022-11-24T01:19:18.770Z,-65
2022-11-24T01:21:46.705Z,-64
2022-11-24T01:24:15.018Z,-65
2022-11-24T01:26:42.805Z,-65
2022-11-24T01:29:12.223Z,-65
2022-11-24T01:31:40.065Z,-65
2022-11-24T01:34:07.705Z,-65
2022-11-24T01:36:35.139Z,-65
2022-11-24T01:39:02.631Z,-65
2022-11-24T01:41:30.087Z,-65
2022-11-24T01:43:58.090Z,-65
2022-11-24T01:46:43.931Z,-65
2022-11-24T01:49:22.700Z,-65
2022-11-24T01:52:05.783Z,-66
2022-11-24T01:54:45.465Z,-65
2022-11-24T01:57:33.590Z,-65
2022-11-24T02:00:11.071Z,-65
2022-11-24T02:02:38.480Z,-65
2022-11-24T02:05:49.191Z,-66
2022-11-24T02:08:34.370Z,-65
2022-11-24T02:11:04.252Z,-65
2022-11-24T02:13:37.935Z,-66
2022-11-24T02:16:10.221Z,-65
2022-11-24T02:18:39.977Z,-65
2022-11-24T02:21:09.154Z,-65
2022-11-24T02:23:54.774Z,-66
2022-11-24T02:26:44.006Z,-65
2022-11-24T02:29:14.306Z,-65
2022-11-24T02:32:00.307Z,-66
2022-11-24T02:34:27.684Z,-65
2022-11-24T02:36:55.040Z,-66
2022-11-24T02:39:23.012Z,-67
2022-11-24T02:42:03.238Z,-66
2022-11-24T02:44:48.952Z,-66
2022-11-24T02:47:20.490Z,-65
2022-11-24T02:49:51.260Z,-65
2022-11-24T02:52:19.122Z,-64
2022-11-24T02:54:46.767Z,-65
2022-11-24T02:57:15.299Z,-64
2022-11-24T02:59:43.116Z,-64
2022-11-24T03:02:10.671Z,-65
2022-11-24T03:04:39.677Z,-65
2022-11-24T03:07:10.136Z,-67
2022-11-24T03:09:38.145Z,-67
2022-11-24T03:12:08.341Z,-66
2022-11-24T03:14:37.505Z,-65
2022-11-24T03:17:05.656Z,-71
2022-11-24T03:19:33.243Z,-71
2022-11-24T03:22:00.830Z,-71
2022-11-24T03:24:28.993Z,-65
2022-11-24T03:26:56.588Z,-67
2022-11-24T03:29:24.201Z,-65
2022-11-24T03:31:51.564Z,-65
2022-11-24T03:34:18.998Z,-66
2022-11-24T03:36:46.383Z,-69
2022-11-24T03:39:13.804Z,-66
2022-11-24T03:41:45.301Z,-65
2022-11-24T03:44:17.903Z,-71
2022-11-24T03:46:51.941Z,-74
2022-11-24T03:49:22.516Z,-65
2022-11-24T03:51:50.684Z,-63
2022-11-24T03:54:18.002Z,-63
2022-11-24T03:56:45.360Z,-63
2022-11-24T03:59:12.728Z,-63
2022-11-24T04:01:40.203Z,-63
2022-11-24T04:04:12.216Z,-63
2022-11-24T04:06:41.350Z,-65
2022-11-24T04:09:09.837Z,-65
2022-11-24T04:11:56.373Z,-65
2022-11-24T04:14:23.780Z,-66
2022-11-24T04:16:51.300Z,-64
2022-11-24T04:19:18.724Z,-64
2022-11-24T04:21:46.262Z,-65
2022-11-24T04:24:14.935Z,-64
2022-11-24T04:26:42.377Z,-63
2022-11-24T04:29:11.017Z,-63
2022-11-24T04:31:38.990Z,-65
2022-11-24T04:34:06.639Z,-65
2022-11-24T04:36:34.430Z,-65
2022-11-24T04:39:19.375Z,-65
2022-11-24T04:41:49.310Z,-65
2022-11-24T04:44:16.802Z,-71
2022-11-24T04:46:44.462Z,-71
2022-11-24T04:49:11.909Z,-72
2022-11-24T04:51:40.505Z,-71
2022-11-24T04:54:11.475Z,-72
2022-11-24T04:56:43.885Z,-71
2022-11-24T04:59:15.841Z,-71
2022-11-24T05:02:05.441Z,-64
2022-11-24T05:04:34.334Z,-65
2022-11-24T05:07:20.665Z,-71
2022-11-24T05:10:07.941Z,-67
2022-11-24T05:12:40.132Z,-67
2022-11-24T05:15:12.751Z,-70
2022-11-24T05:17:43.234Z,-71
2022-11-24T05:20:11.503Z,-63
2022-11-24T08:46:36.081Z,-68
2022-11-24T08:49:05.207Z,-68
2022-11-24T08:51:33.498Z,-68
2022-11-24T08:54:02.737Z,-66
2022-11-24T08:56:33.282Z,-66
2022-11-24T08:59:01.165Z,-66
2022-11-24T09:01:29.368Z,-66
2022-11-24T09:03:57.004Z,-66
2022-11-24T09:06:30.879Z,-68
2022-11-24T09:08:59.859Z,-66
2022-11-24T09:11:28.212Z,-67
2022-11-24T09:13:56.499Z,-67
2022-11-24T09:16:29.039Z,-67
2022-11-24T09:19:04.425Z,-67
2022-11-24T09:21:37.605Z,-67
2022-11-24T09:24:10.294Z,-66
2022-11-24T09:26:44.591Z,-67
2022-11-24T09:29:14.823Z,-67
2022-11-24T09:31:42.204Z,-67
2022-11-24T09:34:15.778Z,-64
2022-11-24T09:36:43.559Z,-64
2022-11-24T09:39:12.205Z,-64
2022-11-24T09:41:54.682Z,-66
2022-11-24T09:45:11.131Z,-65
2022-11-24T09:48:12.426Z,-66
2022-11-24T09:50:40.364Z,-65
2022-11-24T09:53:41.144Z,-65
2022-11-24T09:56:37.277Z,-65
2022-11-24T09:59:24.224Z,-65
2022-11-24T10:01:52.616Z,-66
2022-11-24T10:04:39.842Z,-66
2022-11-24T10:07:38.164Z,-65
2022-11-24T10:10:25.621Z,-65
2022-11-24T10:13:51.027Z,-65
2022-11-24T10:17:07.681Z,-66
2022-11-24T10:20:34.251Z,-65
2022-11-24T10:24:25.788Z,-65
2022-11-24T10:27:24.610Z,-65
2022-11-24T10:29:53.392Z,-66
2022-11-24T10:32:40.096Z,-66
2022-11-24T10:35:45.921Z,-66
2022-11-24T10:38:35.272Z,-65
2022-11-24T10:41:10.642Z,-65
2022-11-24T10:43:41.055Z,-65
2022-11-24T10:46:28.435Z,-65
2022-11-24T10:49:06.135Z,-65
2022-11-24T10:52:16.185Z,-65
2022-11-24T10:55:02.535Z,-65
2022-11-24T10:57:38.878Z,-65
2022-11-24T11:00:18.509Z,-65
2022-11-24T11:02:50.034Z,-65
2022-11-24T11:05:54.377Z,-65
2022-11-24T11:08:32.356Z,-65
2022-11-24T11:11:30.152Z,-65
2022-11-24T11:14:12.925Z,-65
2022-11-24T11:16:51.792Z,-66
2022-11-24T11:19:54.313Z,-66
2022-11-24T11:22:32.006Z,-64
2022-11-24T11:25:27.047Z,-65
2022-11-24T11:28:18.346Z,-65
2022-11-24T11:31:22.263Z,-66
2022-11-24T11:34:23.753Z,-66
2022-11-24T11:36:56.327Z,-66
2022-11-24T11:39:50.265Z,-66
2022-11-24T11:45:43.688Z,-66
2022-11-24T11:48:43.071Z,-65
2022-11-24T11:52:03.755Z,-65
2022-11-24T11:55:26.232Z,-65
2022-11-24T11:58:27.044Z,-66
2022-11-24T12:02:04.158Z,-65
2022-11-24T12:05:05.204Z,-66
2022-11-24T12:09:11.524Z,-66
2022-11-24T12:11:59.504Z,-66
2022-11-24T12:14:44.832Z,-66
2022-11-24T12:17:46.243Z,-66
2022-11-24T12:20:59.230Z,-66
2022-11-24T12:24:04.372Z,-66
2022-11-24T12:26:43.912Z,-66
2022-11-24T12:29:51.801Z,-66
2022-11-24T12:33:02.217Z,-66
2022-11-24T12:36:26.768Z,-66
2022-11-24T12:39:45.613Z,-66
2022-11-24T12:42:46.770Z,-66
2022-11-24T12:45:34.662Z,-66
2022-11-24T12:48:35.916Z,-67
2022-11-24T12:51:12.953Z,-67
2022-11-24T12:53:41.892Z,-66
2022-11-24T12:56:17.696Z,-67
2022-11-24T12:59:24.154Z,-68
2022-11-24T13:02:37.718Z,-67
2022-11-24T13:05:32.937Z,-67
2022-11-24T13:08:05.127Z,-67
2022-11-24T13:14:14.895Z,-67
2022-11-24T13:17:28.789Z,-67
2022-11-24T13:19:51.247Z,-67
2022-11-24T13:22:26.512Z,-67
2022-11-24T13:25:34.999Z,-67
2022-11-24T13:28:06.777Z,-67
2022-11-24T13:30:34.913Z,-69
2022-11-24T13:33:16.579Z,-68
2022-11-24T13:36:02.560Z,-69
2022-11-24T13:38:56.668Z,-68
2022-11-24T13:41:33.039Z,-68
2022-11-24T13:44:15.302Z,-68
2022-11-24T13:47:24.567Z,-68
2022-11-24T13:49:51.908Z,-67
2022-11-24T13:52:42.538Z,-69
2022-11-24T13:55:12.891Z,-68
2022-11-24T13:57:56.285Z,-70
2022-11-24T14:01:03.930Z,-67
2022-11-24T14:04:28.060Z,-68
2022-11-24T14:07:07.895Z,-68
2022-11-24T14:09:50.648Z,-68
2022-11-24T14:12:26.069Z,-68
2022-11-24T14:15:12.861Z,-67
2022-11-24T14:17:40.393Z,-67
2022-11-24T14:20:26.370Z,-67
2022-11-24T14:22:54.566Z,-67
2022-11-24T14:25:32.456Z,-68
2022-11-24T14:28:13.662Z,-68
2022-11-24T14:30:41.073Z,-67
2022-11-24T14:33:13.433Z,-67
2022-11-24T14:35:50.911Z,-65
2022-11-24T14:38:18.290Z,-66
2022-11-24T14:40:53.926Z,-66
2022-11-24T14:43:32.562Z,-66
2022-11-24T14:46:09.418Z,-66
2022-11-24T14:48:52.995Z,-66
2022-11-24T14:51:42.705Z,-66
2022-11-24T14:54:21.295Z,-66
2022-11-24T14:57:06.269Z,-66
2022-11-24T14:59:38.121Z,-66
2022-11-24T15:02:53.795Z,-66
2022-11-24T15:05:25.259Z,-66
2022-11-24T15:08:03.330Z,-66
2022-11-24T15:10:38.481Z,-66
2022-11-24T15:13:21.655Z,-67
2022-11-24T15:16:04.844Z,-66
2022-11-24T15:18:56.507Z,-66
2022-11-24T15:21:37.089Z,-66
2022-11-24T15:24:17.546Z,-66
2022-11-24T15:26:46.273Z,-66
2022-11-24T15:29:14.079Z,-66
2022-11-24T15:31:46.477Z,-65
2022-11-24T15:34:17.218Z,-66
2022-11-24T15:36:45.597Z,-62
2022-11-24T15:39:16.046Z,-65
2022-11-24T15:41:44.411Z,-63
2022-11-24T15:44:12.247Z,-69
2022-11-24T15:46:40.187Z,-67
2022-11-24T15:49:08.010Z,-67
2022-11-24T15:51:45.792Z,-67
2022-11-24T15:54:17.725Z,-71
2022-11-24T15:56:45.755Z,-69
2022-11-24T15:59:20.694Z,-67
2022-11-24T16:01:55.818Z,-69
2022-11-24T16:04:27.335Z,-68
2022-11-24T16:07:04.033Z,-69
2022-11-24T16:09:32.258Z,-71
2022-11-24T16:12:00.947Z,-66
2022-11-24T16:14:37.068Z,-65
2022-11-24T16:17:13.005Z,-63
2022-11-24T16:19:48.496Z,-70
2022-11-24T16:22:21.338Z,-67
2022-11-24T16:24:53.361Z,-63
2022-11-24T16:27:23.002Z,-62
2022-11-24T16:29:54.373Z,-66
2022-11-24T16:32:23.579Z,-61
2022-11-24T16:34:57.656Z,-63
2022-11-24T16:37:28.085Z,-62
2022-11-24T16:39:58.879Z,-62
2022-11-24T16:42:27.210Z,-62
2022-11-24T16:44:55.180Z,-66
2022-11-24T16:47:22.758Z,-67
2022-11-24T16:49:50.502Z,-67
2022-11-24T16:52:18.328Z,-65
2022-11-24T16:54:48.700Z,-66
2022-11-24T16:57:16.351Z,-65
2022-11-24T16:59:45.878Z,-69
2022-11-24T17:02:13.907Z,-69
2022-11-24T17:04:41.348Z,-69
2022-11-24T17:07:08.931Z,-70
2022-11-24T17:09:40.578Z,-70
2022-11-24T17:12:08.359Z,-69
2022-11-24T17:14:36.025Z,-68
2022-11-24T17:17:06.783Z,-69
2022-11-24T17:19:34.318Z,-70
2022-11-24T17:22:01.662Z,-69
2022-11-24T17:24:29.036Z,-69
2022-11-24T17:26:56.496Z,-69
2022-11-24T17:29:24.461Z,-69
2022-11-24T17:31:51.966Z,-69
2022-11-24T17:34:19.465Z,-69
2022-11-24T17:36:46.868Z,-69
2022-11-24T17:39:14.243Z,-69
2022-11-24T17:41:41.708Z,-69
2022-11-24T17:44:10.665Z,-69
2022-11-24T17:46:39.182Z,-69
2022-11-24T17:49:08.348Z,-69
2022-11-24T17:51:35.887Z,-68
2022-11-24T17:54:31.216Z,-70
2022-11-24T17:56:50.868Z,-68
2022-11-24T17:59:18.839Z,-69
2022-11-24T18:01:46.241Z,-69
2022-11-24T18:04:13.858Z,-69
2022-11-24T18:06:41.363Z,-69
2022-11-24T18:09:08.754Z,-70
2022-11-24T18:11:36.285Z,-70
2022-11-24T18:14:04.819Z,-69
2022-11-24T18:16:34.759Z,-70
2022-11-24T18:19:10.681Z,-69
2022-11-24T18:21:44.731Z,-69
2022-11-24T18:24:13.779Z,-69
2022-11-24T18:26:43.101Z,-69
2022-11-24T18:29:11.930Z,-70
2022-11-24T18:31:39.898Z,-69
2022-11-24T18:34:07.972Z,-69
2022-11-24T18:36:36.762Z,-72
2022-11-24T18:39:09.060Z,-69
2022-11-24T18:41:36.574Z,-69
2022-11-24T18:44:07.924Z,-70
2022-11-24T18:46:35.943Z,-69
2022-11-24T18:49:03.571Z,-69
2022-11-24T18:51:31.057Z,-69
2022-11-24T18:53:58.448Z,-70
2022-11-24T18:56:27.030Z,-70
2022-11-24T18:58:56.850Z,-70
2022-11-24T19:01:28.908Z,-71
2022-11-24T19:04:00.583Z,-75
2022-11-24T19:06:39.090Z,-71
2022-11-24T19:09:22.646Z,-69
2022-11-24T19:11:50.299Z,-72
2022-11-24T19:14:19.667Z,-69
2022-11-24T19:16:48.198Z,-69
2022-11-24T19:19:17.107Z,-70
2022-11-24T19:21:44.939Z,-69
2022-11-24T19:24:15.570Z,-69
2022-11-24T19:26:43.009Z,-69
2022-11-24T19:29:10.569Z,-71
2022-11-24T19:31:39.628Z,-70
2022-11-24T19:34:08.040Z,-70
2022-11-24T19:36:36.130Z,-70
2022-11-24T19:39:05.078Z,-71
2022-11-24T19:41:34.096Z,-71
2022-11-24T19:44:01.669Z,-71
2022-11-24T19:46:30.220Z,-71
2022-11-24T19:49:02.099Z,-71
2022-11-24T19:51:38.494Z,-69
2022-11-24T19:54:10.171Z,-70
2022-11-24T19:56:38.008Z,-70
2022-11-24T19:59:06.690Z,-70
2022-11-24T20:01:40.481Z,-70
2022-11-24T20:04:14.864Z,-70
2022-11-24T20:06:47.819Z,-69
2022-11-24T20:09:18.518Z,-70
2022-11-24T20:11:47.033Z,-70
2022-11-24T20:14:20.387Z,-69
2022-11-24T20:16:48.177Z,-69
2022-11-24T20:19:17.902Z,-69
2022-11-24T20:21:47.754Z,-65
2022-11-24T20:24:23.304Z,-64
2022-11-24T20:26:58.488Z,-64
2022-11-24T20:29:28.246Z,-65
2022-11-24T20:31:57.155Z,-65
2022-11-24T20:34:26.235Z,-65
2022-11-24T20:36:53.726Z,-65
2022-11-24T20:39:27.037Z,-64
2022-11-24T20:41:56.043Z,-64
2022-11-24T20:44:26.555Z,-65
2022-11-24T20:46:57.053Z,-65
2022-11-24T20:49:25.070Z,-65
2022-11-24T20:51:57.203Z,-65
2022-11-24T20:54:24.713Z,-65
2022-11-24T20:56:52.328Z,-65
2022-11-24T20:59:24.943Z,-65
2022-11-24T21:01:55.458Z,-65
2022-11-24T21:04:26.385Z,-65
2022-11-24T21:06:55.463Z,-65
2022-11-24T21:09:22.923Z,-65
2022-11-24T21:11:50.447Z,-65
2022-11-24T21:14:17.912Z,-65
2022-11-24T21:16:45.435Z,-65
2022-11-24T21:19:18.603Z,-65
2022-11-24T21:21:48.720Z,-65
2022-11-24T21:24:21.993Z,-65
2022-11-24T21:26:51.744Z,-64
2022-11-24T21:29:22.151Z,-65
2022-11-24T21:31:49.631Z,-67
2022-11-24T21:34:19.355Z,-67
2022-11-24T21:36:47.681Z,-65
2022-11-24T21:39:16.348Z,-65
2022-11-24T21:41:43.998Z,-65
2022-11-24T21:44:13.618Z,-65
2022-11-24T21:46:48.218Z,-65
2022-11-24T21:49:19.813Z,-65
2022-11-24T21:51:47.589Z,-65
2022-11-24T21:54:14.945Z,-65
2022-11-24T21:56:42.312Z,-65
2022-11-24T21:59:09.703Z,-65
2022-11-24T22:01:37.097Z,-65
2022-11-24T22:04:04.912Z,-65
2022-11-24T22:06:33.242Z,-64
2022-11-24T22:09:00.906Z,-65
2022-11-24T22:11:28.319Z,-64
2022-11-24T22:13:55.806Z,-64
2022-11-24T22:16:25.616Z,-62
2022-11-24T22:18:53.045Z,-62
2022-11-24T22:21:30.764Z,-63
2022-11-24T22:23:58.329Z,-62
2022-11-24T22:26:27.362Z,-63
2022-11-24T22:28:57.437Z,-62
2022-11-24T22:31:31.927Z,-62
2022-11-24T22:34:00.877Z,-62
2022-11-24T22:36:30.797Z,-62
2022-11-24T22:39:04.867Z,-62
2022-11-24T22:41:35.383Z,-62
2022-11-24T22:44:03.635Z,-63
2022-11-24T22:46:32.539Z,-64
2022-11-24T22:49:01.808Z,-65
2022-11-24T22:51:34.719Z,-65
2022-11-24T22:54:05.570Z,-65
2022-11-24T22:56:34.384Z,-65
2022-11-24T22:59:03.267Z,-65
2022-11-24T23:01:35.966Z,-65
2022-11-24T23:04:04.071Z,-65
2022-11-24T23:06:33.788Z,-65
2022-11-24T23:09:03.453Z,-65
2022-11-24T23:11:38.824Z,-65
2022-11-24T23:14:15.265Z,-65
2022-11-24T23:16:43.602Z,-65
2022-11-24T23:19:11.146Z,-65
2022-11-24T23:21:39.309Z,-65
2022-11-24T23:24:08.606Z,-65
2022-11-24T23:26:41.232Z,-65
2022-11-24T23:29:11.647Z,-64
2022-11-24T23:31:42.050Z,-65
2022-11-24T23:34:10.139Z,-65
2022-11-24T23:36:37.583Z,-65
2022-11-24T23:39:13.347Z,-65
2022-11-24T23:41:41.396Z,-65
2022-11-24T23:44:09.118Z,-65
2022-11-24T23:46:37.054Z,-65
2022-11-24T23:49:04.397Z,-65
2022-11-24T23:51:33.889Z,-65
2022-11-24T23:54:01.759Z,-65
2022-11-24T23:56:33.140Z,-65
2022-11-24T23:59:03.733Z,-65
